createdAt,value
2023-05-14T00:00:29.893Z,70.53
2023-05-14T00:03:59.981Z,72.46
2023-05-14T00:07:33.189Z,71.16
2023-05-14T00:16:27.291Z,69.61
2023-05-14T00:19:51.765Z,69.32
2023-05-14T00:23:11.625Z,69.60
2023-05-14T00:26:16.889Z,70.38
2023-05-14T00:30:02.854Z,71.25
2023-05-14T00:33:08.459Z,71.35
2023-05-14T00:36:40.767Z,70.95
2023-05-14T00:40:01.317Z,70.96
2023-05-14T00:43:06.693Z,71.15
2023-05-14T00:46:12.660Z,70.05
2023-05-14T00:49:18.999Z,69.91
2023-05-14T00:52:46.191Z,70.00
2023-05-14T00:56:03.973Z,70.18
2023-05-14T00:59:09.728Z,70.19
2023-05-14T01:02:27.937Z,70.72
2023-05-14T01:06:26.559Z,71.60
2023-05-14T01:09:46.333Z,71.62
2023-05-14T01:13:09.616Z,70.88
2023-05-14T01:16:16.968Z,70.13
2023-05-14T01:19:48.327Z,70.88
2023-05-14T01:22:56.862Z,69.88
2023-05-14T01:26:04.516Z,70.58
2023-05-14T01:29:22.039Z,71.41
2023-05-14T01:32:34.741Z,70.97
2023-05-14T01:35:40.736Z,70.23
2023-05-14T01:38:49.882Z,71.18
2023-05-14T01:41:59.612Z,70.59
2023-05-14T01:45:07.560Z,70.24
2023-05-14T01:48:17.216Z,70.39
2023-05-14T01:51:37.146Z,70.78
2023-05-14T01:54:44.640Z,70.85
2023-05-14T01:57:57.207Z,70.54
2023-05-14T02:01:23.099Z,70.61
2023-05-14T02:04:30.325Z,70.51
2023-05-14T02:07:38.910Z,71.21
2023-05-14T02:11:18.833Z,70.49
2023-05-14T02:14:29.830Z,70.43
2023-05-14T02:17:57.270Z,70.24
2023-05-14T02:21:26.155Z,70.38
2023-05-14T02:24:54.326Z,69.78
2023-05-14T02:28:26.466Z,70.05
2023-05-14T02:31:39.648Z,70.63
2023-05-14T02:34:47.486Z,70.49
2023-05-14T02:37:52.263Z,70.82
2023-05-14T02:40:55.053Z,70.71
2023-05-14T02:44:05.776Z,70.68
2023-05-14T02:47:10.861Z,71.09
2023-05-14T02:50:13.874Z,70.92
2023-05-14T02:53:16.803Z,71.18
2023-05-14T02:56:35.629Z,71.51
2023-05-14T02:59:45.561Z,71.59
2023-05-14T03:03:17.062Z,71.24
2023-05-14T03:06:40.711Z,71.07
2023-05-14T03:10:12.876Z,71.47
2023-05-14T03:13:28.636Z,71.60
2023-05-14T03:16:33.566Z,71.44
2023-05-14T03:19:44.695Z,71.35
2023-05-14T03:27:53.243Z,71.16
2023-05-14T03:31:02.367Z,70.89
2023-05-14T03:34:06.395Z,70.81
2023-05-14T03:37:24.654Z,70.50
2023-05-14T03:40:36.601Z,70.52
2023-05-14T03:43:43.519Z,70.24
2023-05-14T03:46:50.935Z,71.83
2023-05-14T03:49:58.568Z,71.10
2023-05-14T03:53:17.225Z,70.57
2023-05-14T03:56:26.355Z,70.09
2023-05-14T03:59:36.206Z,69.44
2023-05-14T04:02:41.402Z,68.76
2023-05-14T04:05:46.491Z,67.31
2023-05-14T04:08:54.244Z,65.51
2023-05-14T04:12:01.286Z,62.97
2023-05-14T04:15:05.854Z,59.03
2023-05-14T04:18:20.277Z,59.02
2023-05-14T04:21:25.248Z,56.18
2023-05-14T04:24:36.553Z,56.01
2023-05-14T04:27:40.770Z,55.34
2023-05-14T04:30:53.528Z,53.23
2023-05-14T04:33:57.280Z,51.86
2023-05-14T04:37:00.086Z,50.79
2023-05-14T04:40:06.196Z,50.90
2023-05-14T04:43:09.474Z,50.69
2023-05-14T04:46:28.959Z,51.26
2023-05-14T04:49:33.839Z,51.92
2023-05-14T04:53:01.842Z,51.82
2023-05-14T04:56:08.452Z,51.94
2023-05-14T04:59:13.807Z,53.37
2023-05-14T05:02:18.042Z,53.88
2023-05-14T05:05:25.042Z,53.95
2023-05-14T05:08:29.488Z,54.10
2023-05-14T05:11:32.419Z,53.64
2023-05-14T05:14:35.307Z,54.29
2023-05-14T05:17:40.588Z,54.07
2023-05-14T05:20:47.494Z,53.59
2023-05-14T05:23:51.060Z,53.56
2023-05-14T05:26:55.835Z,53.78
2023-05-14T05:29:59.137Z,53.33
2023-05-14T05:33:02.121Z,52.67
2023-05-14T05:36:10.068Z,52.77
2023-05-14T05:39:35.000Z,52.87
2023-05-14T05:42:48.802Z,52.03
2023-05-14T05:46:12.060Z,52.39
2023-05-14T05:49:15.018Z,52.01
2023-05-14T05:52:17.803Z,52.74
2023-05-14T05:55:20.802Z,52.41
2023-05-14T05:58:24.199Z,51.41
2023-05-14T06:01:27.384Z,50.80
2023-05-14T06:04:38.828Z,51.08
2023-05-14T06:07:49.912Z,50.40
2023-05-14T06:10:55.787Z,49.98
2023-05-14T06:13:58.661Z,49.09
2023-05-14T06:17:03.786Z,49.84
2023-05-14T06:20:10.074Z,49.68
2023-05-14T06:23:35.233Z,48.50
2023-05-14T06:26:39.972Z,48.28
2023-05-14T06:30:01.201Z,48.26
2023-05-14T06:33:40.720Z,47.27
2023-05-14T06:37:08.136Z,47.52
2023-05-14T06:40:24.800Z,47.63
2023-05-14T06:43:41.092Z,47.94
2023-05-14T06:46:48.774Z,46.71
2023-05-14T06:50:01.198Z,46.18
2023-05-14T06:53:04.892Z,47.89
2023-05-14T06:56:08.053Z,46.77
2023-05-14T06:59:40.513Z,46.79
2023-05-14T07:02:45.742Z,46.33
2023-05-14T07:05:56.160Z,47.02
2023-05-14T07:09:01.999Z,46.51
2023-05-14T07:12:10.028Z,46.79
2023-05-14T07:15:21.253Z,45.61
2023-05-14T07:18:26.064Z,45.86
2023-05-14T07:21:29.584Z,46.06
2023-05-14T07:24:32.483Z,46.81
2023-05-14T07:27:44.604Z,46.70
2023-05-14T07:31:06.003Z,46.42
2023-05-14T07:34:11.757Z,46.62
2023-05-14T07:37:14.794Z,45.99
2023-05-14T07:40:48.612Z,45.75
2023-05-14T07:44:11.552Z,46.86
2023-05-14T07:47:18.297Z,47.00
2023-05-14T07:50:27.619Z,46.58
2023-05-14T07:53:50.688Z,46.42
2023-05-14T07:56:53.732Z,46.60
2023-05-14T07:59:57.135Z,46.28
2023-05-14T08:03:00.178Z,46.68
2023-05-14T08:06:07.228Z,46.97
2023-05-14T08:09:17.600Z,46.57
2023-05-14T08:12:25.642Z,46.24
2023-05-14T08:16:11.565Z,45.77
2023-05-14T08:19:15.193Z,46.77
2023-05-14T08:22:20.919Z,46.38
2023-05-14T08:25:25.797Z,46.53
2023-05-14T08:28:28.734Z,46.44
2023-05-14T08:31:58.258Z,47.29
2023-05-14T08:35:32.273Z,47.03
2023-05-14T08:38:58.695Z,46.96
2023-05-14T08:42:21.952Z,47.20
2023-05-14T08:45:34.169Z,46.53
2023-05-14T08:48:49.220Z,46.39
2023-05-14T08:51:54.739Z,46.23
2023-05-14T08:55:00.749Z,45.71
2023-05-14T08:58:07.464Z,45.49
2023-05-14T09:01:10.318Z,44.80
2023-05-14T09:04:16.709Z,45.23
2023-05-14T09:07:55.023Z,44.96
2023-05-14T09:11:02.044Z,45.09
2023-05-14T09:14:33.319Z,46.01
2023-05-14T09:17:42.340Z,45.95
2023-05-14T09:21:08.191Z,45.64
2023-05-14T09:25:03.522Z,45.36
2023-05-14T09:28:17.632Z,45.06
2023-05-14T09:31:27.515Z,45.24
2023-05-14T09:34:41.670Z,44.98
2023-05-14T09:37:47.156Z,44.69
2023-05-14T09:40:51.950Z,43.63
2023-05-14T09:43:56.923Z,43.93
2023-05-14T09:47:00.157Z,43.94
2023-05-14T09:50:09.773Z,43.45
2023-05-14T09:53:18.610Z,43.38
2023-05-14T09:56:26.931Z,42.94
2023-05-14T09:59:36.749Z,43.04
2023-05-14T10:02:43.878Z,43.06
2023-05-14T10:05:51.494Z,42.62
2023-05-14T10:08:57.357Z,42.30
2023-05-14T10:12:01.456Z,42.49
2023-05-14T10:15:43.715Z,42.33
2023-05-14T10:19:05.161Z,41.83
2023-05-14T10:22:22.385Z,41.30
2023-05-14T10:25:31.563Z,40.73
2023-05-14T10:28:36.772Z,40.19
2023-05-14T10:31:54.266Z,40.29
2023-05-14T10:35:25.495Z,40.01
2023-05-14T10:38:35.224Z,40.19
2023-05-14T10:41:43.698Z,39.76
2023-05-14T10:44:57.781Z,39.33
2023-05-14T10:48:16.697Z,39.95
2023-05-14T10:51:28.712Z,39.83
2023-05-14T10:54:35.986Z,40.40
2023-05-14T10:57:46.347Z,40.16
2023-05-14T11:01:15.408Z,39.77
2023-05-14T11:04:42.571Z,40.12
2023-05-14T11:07:50.647Z,40.91
2023-05-14T11:10:56.541Z,41.50
2023-05-14T11:14:01.358Z,41.65
2023-05-14T11:17:10.660Z,41.37
2023-05-14T11:20:16.883Z,41.11
2023-05-14T11:23:25.372Z,41.42
2023-05-14T11:26:32.472Z,41.26
2023-05-14T11:29:46.298Z,41.00
2023-05-14T11:33:04.624Z,41.83
2023-05-14T11:36:17.752Z,41.69
2023-05-14T11:39:22.433Z,41.81
2023-05-14T11:42:27.492Z,41.41
2023-05-14T11:45:33.153Z,41.70
2023-05-14T11:48:36.508Z,41.73
2023-05-14T11:51:41.044Z,41.64
2023-05-14T11:54:49.741Z,41.52
2023-05-14T11:57:57.227Z,40.88
2023-05-14T12:01:04.387Z,40.51
2023-05-14T12:04:14.472Z,40.34
2023-05-14T12:07:29.495Z,39.98
2023-05-14T12:10:42.194Z,39.63
2023-05-14T12:13:52.907Z,39.43
2023-05-14T12:16:59.549Z,39.68
2023-05-14T12:20:04.254Z,39.71
2023-05-14T12:23:12.391Z,39.95
2023-05-14T12:26:16.702Z,40.26
2023-05-14T12:29:28.159Z,40.15
2023-05-14T12:32:36.873Z,40.44
2023-05-14T12:35:43.097Z,40.43
2023-05-14T12:39:04.378Z,40.48
2023-05-14T12:42:40.800Z,40.16
2023-05-14T12:45:56.172Z,39.78
2023-05-14T12:49:26.643Z,40.22
2023-05-14T12:52:53.091Z,40.20
2023-05-14T12:56:01.414Z,40.15
2023-05-14T12:59:05.938Z,40.48
2023-05-14T13:02:10.834Z,40.88
2023-05-14T13:05:33.888Z,41.19
2023-05-14T13:08:40.547Z,40.88
2023-05-14T13:11:45.353Z,41.30
2023-05-14T13:14:50.167Z,41.23
2023-05-14T13:17:56.630Z,41.41
2023-05-14T13:21:05.831Z,41.45
2023-05-14T13:24:20.957Z,41.84
2023-05-14T13:27:28.509Z,41.96
2023-05-14T13:30:39.053Z,41.90
2023-05-14T13:33:54.834Z,41.91
2023-05-14T13:37:00.926Z,42.13
2023-05-14T13:40:28.439Z,41.71
2023-05-14T13:43:47.111Z,41.77
2023-05-14T13:47:09.708Z,41.59
2023-05-14T13:50:23.045Z,41.98
2023-05-14T13:56:59.858Z,42.84
2023-05-14T14:00:08.945Z,43.52
2023-05-14T14:03:13.713Z,43.77
2023-05-14T14:06:35.444Z,44.14
2023-05-14T14:10:02.504Z,44.51
2023-05-14T14:13:19.040Z,44.91
2023-05-14T14:16:28.226Z,45.28
2023-05-14T14:19:40.821Z,45.51
2023-05-14T14:23:08.121Z,45.68
2023-05-14T14:26:17.857Z,46.22
2023-05-14T14:29:51.321Z,46.47
2023-05-14T14:33:07.430Z,46.90
2023-05-14T14:36:22.031Z,47.15
2023-05-14T14:39:29.168Z,47.58
2023-05-14T14:42:38.870Z,47.92
2023-05-14T14:45:49.473Z,48.22
2023-05-14T14:49:02.369Z,48.30
2023-05-14T14:52:29.828Z,49.02
2023-05-14T14:55:55.630Z,49.37
2023-05-14T14:59:17.636Z,49.58
2023-05-14T15:02:28.700Z,50.21
2023-05-14T15:05:40.521Z,50.52
2023-05-14T15:09:01.100Z,50.89
2023-05-14T15:12:25.157Z,51.37
2023-05-14T15:15:40.539Z,52.28
2023-05-14T15:18:48.323Z,53.00
2023-05-14T15:22:00.548Z,53.61
2023-05-14T15:25:58.871Z,57.49
2023-05-14T15:29:09.365Z,57.99
2023-05-14T15:32:19.656Z,56.36
2023-05-14T15:35:41.608Z,60.59
2023-05-14T15:38:52.136Z,61.65
2023-05-14T15:42:16.978Z,62.49
2023-05-14T15:45:19.860Z,63.75
2023-05-14T15:48:30.580Z,64.32
2023-05-14T15:51:42.170Z,65.80
2023-05-14T15:54:48.393Z,66.13
2023-05-14T15:57:56.401Z,64.64
2023-05-14T16:01:09.496Z,67.87
2023-05-14T16:04:17.932Z,70.38
2023-05-14T16:07:36.828Z,68.32
2023-05-14T16:10:55.749Z,70.35
2023-05-14T16:14:04.722Z,70.25
2023-05-14T16:17:32.439Z,71.22
2023-05-14T16:20:43.556Z,70.90
2023-05-14T16:24:10.674Z,68.83
2023-05-14T16:27:27.522Z,69.13
2023-05-14T16:30:32.205Z,72.33
2023-05-14T16:33:42.086Z,72.59
2023-05-14T16:37:00.934Z,71.82
2023-05-14T16:40:03.962Z,71.18
2023-05-14T16:43:07.006Z,71.53
2023-05-14T16:46:10.498Z,69.55
2023-05-14T16:49:15.302Z,71.55
2023-05-14T16:52:18.614Z,74.14
2023-05-14T16:55:22.019Z,71.47
2023-05-14T16:58:28.651Z,71.79
2023-05-14T17:01:40.787Z,73.50
2023-05-14T17:04:46.767Z,73.46
2023-05-14T17:10:53.749Z,75.09
2023-05-14T17:14:31.778Z,76.40
2023-05-14T17:18:09.231Z,78.40
2023-05-14T17:21:12.222Z,75.92
2023-05-14T17:24:30.375Z,77.31
2023-05-14T17:28:15.913Z,75.87
2023-05-14T17:31:59.169Z,76.85
2023-05-14T17:39:26.193Z,80.30
2023-05-14T18:23:36.892Z,81.01
2023-05-14T18:27:04.080Z,81.09
2023-05-14T18:41:06.673Z,80.80
2023-05-14T18:44:09.555Z,80.49
2023-05-14T18:47:13.620Z,80.59
2023-05-14T18:50:16.530Z,80.58
2023-05-14T18:53:19.515Z,80.88
2023-05-14T18:56:23.260Z,81.76
2023-05-14T18:59:27.834Z,85.16
2023-05-14T19:02:31.032Z,82.99
2023-05-14T19:05:45.649Z,84.13
2023-05-14T19:08:48.571Z,84.80
2023-05-14T19:11:51.597Z,87.48
2023-05-14T19:14:54.624Z,86.14
2023-05-14T19:17:57.819Z,86.13
2023-05-14T19:21:01.365Z,86.73
2023-05-14T19:24:12.190Z,86.87
2023-05-14T19:27:17.427Z,85.56
2023-05-14T19:30:23.425Z,85.22
2023-05-14T19:33:27.777Z,84.83
2023-05-14T19:36:36.236Z,85.13
2023-05-14T19:39:39.314Z,85.42
2023-05-14T19:42:44.048Z,85.05
2023-05-14T19:45:48.730Z,85.52
2023-05-14T19:48:53.535Z,85.59
2023-05-14T19:51:56.317Z,85.99
2023-05-14T19:55:00.388Z,86.77
2023-05-14T19:58:11.831Z,87.78
2023-05-14T20:01:36.707Z,88.86
2023-05-14T20:05:11.981Z,88.17
2023-05-14T20:08:16.807Z,88.94
2023-05-14T20:11:19.730Z,90.05
2023-05-14T20:14:22.573Z,89.45
2023-05-14T20:17:25.579Z,89.74
2023-05-14T20:20:31.143Z,89.86
2023-05-14T20:23:38.490Z,90.80
2023-05-14T20:26:43.209Z,91.36
2023-05-14T20:29:46.854Z,91.85
2023-05-14T20:32:50.338Z,91.37
2023-05-14T20:36:21.008Z,91.17
2023-05-14T20:39:25.306Z,91.34
2023-05-14T20:42:28.964Z,91.59
2023-05-14T20:45:32.008Z,92.16
2023-05-14T20:48:34.955Z,92.26
2023-05-14T20:51:40.103Z,92.34
2023-05-14T20:54:44.170Z,92.84
2023-05-14T20:57:47.121Z,92.58
2023-05-14T21:00:50.024Z,92.59
2023-05-14T21:03:53.155Z,92.39
2023-05-14T21:06:58.081Z,92.18
2023-05-14T21:10:03.983Z,91.86
2023-05-14T21:13:10.142Z,91.46
2023-05-14T21:16:13.127Z,91.10
2023-05-14T21:19:16.259Z,91.06
2023-05-14T21:22:19.205Z,91.00
2023-05-14T21:25:23.304Z,90.84
2023-05-14T21:28:27.319Z,90.67
2023-05-14T21:31:31.000Z,90.71
2023-05-14T21:34:39.899Z,90.49
2023-05-14T21:37:43.864Z,90.34
2023-05-14T21:40:48.923Z,90.21
2023-05-14T21:43:51.892Z,90.01
2023-05-14T21:46:54.926Z,89.66
2023-05-14T21:49:59.818Z,89.56
2023-05-14T21:53:04.617Z,89.64
2023-05-14T21:56:09.303Z,89.32
2023-05-14T21:59:12.293Z,89.29
2023-05-14T22:02:15.152Z,89.20
2023-05-14T22:05:22.686Z,88.85
2023-05-14T22:08:27.790Z,88.48
2023-05-14T22:11:30.612Z,88.70
2023-05-14T22:14:35.521Z,88.68
2023-05-14T22:17:39.031Z,88.88
2023-05-14T22:20:43.022Z,89.00
2023-05-14T22:23:49.896Z,88.60
2023-05-14T22:26:54.800Z,89.06
2023-05-14T22:30:04.040Z,88.69
2023-05-14T22:33:14.237Z,88.53
2023-05-14T22:36:26.021Z,88.38
2023-05-14T22:39:32.842Z,88.56
2023-05-14T22:45:44.228Z,87.76
2023-05-14T22:49:16.049Z,88.31
2023-05-14T22:52:34.879Z,88.46
2023-05-14T22:55:39.001Z,88.31
2023-05-14T22:58:41.940Z,88.33
2023-05-14T23:01:45.226Z,88.66
2023-05-14T23:04:48.375Z,88.87
2023-05-14T23:08:02.820Z,88.83
2023-05-14T23:11:06.676Z,88.77
2023-05-14T23:14:09.558Z,88.31
2023-05-14T23:17:14.474Z,88.43
2023-05-14T23:20:17.753Z,88.60
2023-05-14T23:23:26.094Z,88.51
2023-05-14T23:26:36.382Z,88.61
2023-05-14T23:29:39.205Z,88.33
2023-05-14T23:32:44.052Z,88.36
2023-05-14T23:35:58.841Z,87.98
2023-05-14T23:39:02.499Z,88.73
2023-05-14T23:42:05.744Z,88.42
2023-05-14T23:45:16.409Z,88.06
2023-05-14T23:48:22.828Z,88.43
2023-05-14T23:51:38.294Z,88.40
2023-05-14T23:54:43.045Z,88.11
2023-05-14T23:57:48.752Z,87.64
